createdAt,value
2022-09-16T00:07:09.523Z,59.27
2022-09-16T00:09:38.281Z,59.48
2022-09-16T00:12:07.083Z,59.72
2022-09-16T00:14:34.592Z,59.32
2022-09-16T00:17:02.836Z,58.93
2022-09-16T00:21:59.790Z,59.44
2022-09-16T00:24:27.130Z,59.62
2022-09-16T00:26:54.489Z,59.66
2022-09-16T00:29:24.034Z,59.89
2022-09-16T00:31:53.143Z,59.53
2022-09-16T00:34:23.259Z,59.50
2022-09-16T00:36:52.746Z,60.44
2022-09-16T00:41:50.255Z,60.27
2022-09-16T00:44:26.565Z,60.74
2022-09-16T00:46:55.664Z,60.38
2022-09-16T00:49:26.102Z,60.17
2022-09-16T00:52:00.266Z,61.21
2022-09-16T00:54:29.219Z,61.10
2022-09-16T00:57:00.984Z,60.92
2022-09-16T00:59:32.671Z,60.75
2022-09-16T01:02:06.523Z,61.25
2022-09-16T01:04:37.650Z,61.79
2022-09-16T01:07:04.823Z,61.79
2022-09-16T01:09:32.494Z,61.91
2022-09-16T01:11:59.849Z,61.91
2022-09-16T01:14:32.479Z,62.35
2022-09-16T01:17:07.774Z,62.61
2022-09-16T01:19:38.026Z,63.09
2022-09-16T01:22:05.446Z,63.15
2022-09-16T01:24:38.571Z,63.30
2022-09-16T01:27:17.713Z,63.53
2022-09-16T01:29:58.045Z,63.26
2022-09-16T01:32:25.983Z,63.36
2022-09-16T01:34:53.401Z,63.38
2022-09-16T01:37:23.971Z,64.21
2022-09-16T01:39:54.709Z,64.05
2022-09-16T01:42:30.741Z,64.37
2022-09-16T01:45:01.326Z,64.86
2022-09-16T01:47:36.995Z,64.98
2022-09-16T01:50:08.481Z,65.40
2022-09-16T01:52:41.929Z,65.64
2022-09-16T01:55:11.152Z,65.65
2022-09-16T01:57:46.614Z,65.77
2022-09-16T02:00:15.942Z,66.03
2022-09-16T02:07:51.980Z,66.77
2022-09-16T02:10:26.791Z,67.12
2022-09-16T02:15:30.319Z,67.84
2022-09-16T02:18:03.705Z,67.84
2022-09-16T02:23:10.082Z,68.13
2022-09-16T02:30:43.867Z,68.38
2022-09-16T02:33:14.050Z,68.33
2022-09-16T02:35:48.968Z,68.60
2022-09-16T02:38:23.878Z,69.05
2022-09-16T02:40:56.411Z,69.15
2022-09-16T02:43:26.928Z,69.48
2022-09-16T02:45:57.728Z,69.73
2022-09-16T02:48:32.768Z,69.49
2022-09-16T02:51:01.409Z,69.57
2022-09-16T02:56:16.829Z,69.96
2022-09-16T03:01:15.754Z,70.38
2022-09-16T03:03:43.106Z,70.29
2022-09-16T03:06:16.950Z,70.33
2022-09-16T03:11:20.130Z,70.56
2022-09-16T03:16:32.987Z,70.96
2022-09-16T03:19:06.723Z,70.36
2022-09-16T03:24:15.055Z,70.63
2022-09-16T03:29:12.848Z,70.81
2022-09-16T03:34:13.643Z,70.62
2022-09-16T03:36:49.065Z,69.76
2022-09-16T03:39:16.717Z,70.08
2022-09-16T03:41:45.686Z,70.26
2022-09-16T03:44:14.293Z,70.62
2022-09-16T03:46:43.757Z,70.47
2022-09-16T03:54:09.004Z,70.06
2022-09-16T03:56:37.000Z,70.53
2022-09-16T03:59:04.391Z,70.67
2022-09-16T04:11:30.202Z,70.71
2022-09-16T04:13:59.855Z,70.88
2022-09-16T04:18:55.448Z,70.65
2022-09-16T04:21:23.422Z,70.93
2022-09-16T04:28:48.571Z,71.87
2022-09-16T04:31:17.859Z,71.66
2022-09-16T04:33:47.547Z,71.29
2022-09-16T04:36:17.953Z,71.15
2022-09-16T04:38:47.865Z,71.17
2022-09-16T04:43:47.306Z,71.66
2022-09-16T04:46:16.026Z,72.20
2022-09-16T04:51:14.825Z,71.67
2022-09-16T04:56:19.973Z,72.33
2022-09-16T04:58:48.783Z,72.05
2022-09-16T05:03:50.927Z,72.24
2022-09-16T05:06:21.176Z,72.35
2022-09-16T05:11:24.166Z,72.51
2022-09-16T05:26:20.621Z,73.52
2022-09-16T05:33:47.505Z,73.68
2022-09-16T05:39:10.962Z,73.71
2022-09-16T05:48:46.987Z,73.78
2022-09-16T05:51:18.748Z,74.19
2022-09-16T05:58:53.775Z,74.67
2022-09-16T06:01:24.034Z,74.57
2022-09-16T06:03:52.240Z,74.97
2022-09-16T06:23:51.811Z,75.26
2022-09-16T06:28:51.381Z,75.25
2022-09-16T06:41:20.649Z,74.81
2022-09-16T06:43:49.269Z,75.37
2022-09-16T06:46:21.281Z,75.39
2022-09-16T06:49:05.678Z,75.52
2022-09-16T06:51:35.110Z,76.54
2022-09-16T06:54:05.501Z,75.95
2022-09-16T06:56:34.342Z,75.41
2022-09-16T06:59:01.201Z,75.23
2022-09-16T07:01:32.838Z,74.76
2022-09-16T07:04:05.883Z,75.00
2022-09-16T07:06:57.769Z,74.83
2022-09-16T07:09:21.038Z,74.66
2022-09-16T07:16:56.359Z,74.59
2022-09-16T07:19:23.793Z,74.88
2022-09-16T07:24:18.859Z,75.73
2022-09-16T07:26:46.813Z,74.88
2022-09-16T07:29:17.948Z,74.41
2022-09-16T07:31:46.204Z,74.39
2022-09-16T07:34:15.305Z,74.65
2022-09-16T07:36:46.783Z,74.28
2022-09-16T07:41:44.867Z,74.38
2022-09-16T07:44:15.008Z,74.21
2022-09-16T07:46:43.038Z,74.25
2022-09-16T07:51:39.517Z,74.39
2022-09-16T07:54:09.662Z,73.98
2022-09-16T07:56:38.069Z,73.88
2022-09-16T07:59:05.925Z,73.72
2022-09-16T08:01:33.692Z,73.11
2022-09-16T08:04:02.140Z,73.46
2022-09-16T08:06:31.760Z,74.27
2022-09-16T08:09:15.528Z,74.92
2022-09-16T08:11:52.698Z,72.99
2022-09-16T08:14:19.949Z,71.04
2022-09-16T08:16:47.490Z,70.29
2022-09-16T08:19:15.096Z,70.26
2022-09-16T08:21:42.624Z,70.36
2022-09-16T08:24:11.190Z,69.64
2022-09-16T08:26:38.783Z,69.26
2022-09-16T08:29:10.376Z,69.63
2022-09-16T08:34:00.913Z,69.05
2022-09-16T08:36:28.450Z,68.67
2022-09-16T08:38:57.200Z,69.04
2022-09-16T08:41:30.525Z,69.17
2022-09-16T08:49:08.034Z,69.14
2022-09-16T08:51:35.754Z,69.07
2022-09-16T08:54:05.210Z,68.10
2022-09-16T08:56:34.860Z,67.26
2022-09-16T09:01:35.224Z,66.89
2022-09-16T09:04:03.684Z,67.20
2022-09-16T09:06:35.909Z,67.80
2022-09-16T09:09:16.767Z,67.69
2022-09-16T09:11:52.714Z,67.90
2022-09-16T09:17:05.639Z,67.20
2022-09-16T09:19:39.026Z,66.99
2022-09-16T09:22:14.245Z,65.83
2022-09-16T09:24:54.624Z,65.67
2022-09-16T09:27:29.874Z,64.69
2022-09-16T09:30:00.627Z,65.07
2022-09-16T09:35:06.865Z,63.05
2022-09-16T09:40:14.142Z,62.33
2022-09-16T09:42:47.727Z,61.98
2022-09-16T09:45:30.780Z,61.89
2022-09-16T09:47:59.964Z,61.95
2022-09-16T09:50:39.233Z,62.09
2022-09-16T09:53:12.818Z,62.34
2022-09-16T09:55:41.773Z,61.63
2022-09-16T09:58:24.855Z,61.27
2022-09-16T10:00:56.445Z,61.17
2022-09-16T10:03:24.821Z,61.10
2022-09-16T10:05:52.716Z,61.06
2022-09-16T10:08:24.229Z,61.48
2022-09-16T10:10:56.922Z,62.67
2022-09-16T10:13:25.887Z,61.47
2022-09-16T10:15:56.005Z,61.24
2022-09-16T10:18:25.350Z,61.30
2022-09-16T10:21:08.306Z,59.92
2022-09-16T10:23:36.691Z,58.62
2022-09-16T10:26:08.974Z,59.23
2022-09-16T10:28:38.824Z,57.93
2022-09-16T10:31:08.317Z,56.04
2022-09-16T10:33:42.904Z,56.55
2022-09-16T10:36:18.951Z,56.84
2022-09-16T10:38:54.197Z,57.59
2022-09-16T10:41:26.610Z,56.51
2022-09-16T10:44:00.170Z,56.00
2022-09-16T10:46:30.136Z,56.11
2022-09-16T10:49:02.676Z,55.73
2022-09-16T10:56:32.158Z,55.82
2022-09-16T11:01:44.077Z,53.59
2022-09-16T11:06:46.169Z,53.06
2022-09-16T11:09:22.431Z,53.69
2022-09-16T11:11:51.289Z,52.33
2022-09-16T11:14:22.732Z,53.01
2022-09-16T11:17:01.661Z,53.08
2022-09-16T11:22:14.109Z,55.39
2022-09-16T11:24:51.337Z,54.05
2022-09-16T11:27:22.767Z,54.48
2022-09-16T11:29:52.346Z,53.51
2022-09-16T11:32:20.248Z,52.49
2022-09-16T11:37:34.254Z,52.58
2022-09-16T11:40:06.618Z,52.41
2022-09-16T11:42:42.545Z,51.07
2022-09-16T11:45:14.590Z,49.65
2022-09-16T11:47:42.891Z,49.05
2022-09-16T11:50:16.183Z,47.51
2022-09-16T11:52:53.532Z,47.38
2022-09-16T11:58:03.808Z,48.34
2022-09-16T12:00:45.666Z,49.36
2022-09-16T12:03:14.151Z,48.86
2022-09-16T12:10:59.283Z,47.10
2022-09-16T12:13:35.510Z,47.43
2022-09-16T12:16:08.980Z,46.69
2022-09-16T12:21:45.666Z,46.32
2022-09-16T12:24:20.303Z,46.95
2022-09-16T12:27:02.761Z,46.96
2022-09-16T12:37:22.203Z,46.38
2022-09-16T12:39:50.780Z,44.67
2022-09-16T12:42:33.832Z,44.58
2022-09-16T12:45:03.893Z,44.83
2022-09-16T12:47:35.714Z,44.31
2022-09-16T12:50:12.949Z,45.60
2022-09-16T12:57:49.200Z,45.25
2022-09-16T13:00:24.269Z,44.00
2022-09-16T13:02:56.389Z,44.09
2022-09-16T13:05:32.425Z,43.92
2022-09-16T13:08:20.826Z,44.75
2022-09-16T13:11:05.546Z,45.07
2022-09-16T13:13:47.179Z,45.34
2022-09-16T13:16:14.796Z,45.39
2022-09-16T13:18:44.893Z,46.26
2022-09-16T13:21:19.064Z,45.74
2022-09-16T13:23:52.811Z,44.04
2022-09-16T13:26:20.303Z,43.42
2022-09-16T13:33:49.135Z,43.47
2022-09-16T13:36:31.397Z,44.19
2022-09-16T13:39:02.348Z,44.39
2022-09-16T13:44:01.213Z,43.66
2022-09-16T13:46:32.148Z,43.11
2022-09-16T13:49:03.931Z,43.48
2022-09-16T13:51:36.379Z,43.84
2022-09-16T13:59:14.146Z,43.44
2022-09-16T14:04:26.374Z,43.41
2022-09-16T14:07:02.166Z,43.60
2022-09-16T14:09:35.306Z,43.92
2022-09-16T14:12:08.669Z,44.27
2022-09-16T14:17:23.271Z,44.02
2022-09-16T14:19:57.225Z,43.07
2022-09-16T14:22:27.964Z,43.45
2022-09-16T14:25:06.173Z,42.35
2022-09-16T14:27:38.283Z,41.66
2022-09-16T14:30:14.611Z,41.12
2022-09-16T14:32:44.275Z,41.13
2022-09-16T14:35:19.356Z,40.09
2022-09-16T14:37:50.546Z,40.53
2022-09-16T14:43:00.898Z,40.37
2022-09-16T14:45:36.465Z,41.14
2022-09-16T14:48:09.930Z,40.61
2022-09-16T14:50:55.285Z,41.03
2022-09-16T14:53:35.440Z,40.63
2022-09-16T14:56:05.589Z,40.83
2022-09-16T14:58:34.399Z,41.91
2022-09-16T15:01:12.514Z,41.53
2022-09-16T15:03:53.374Z,42.88
2022-09-16T15:06:27.938Z,41.21
2022-09-16T15:09:00.781Z,41.07
2022-09-16T15:11:48.713Z,40.86
2022-09-16T15:14:18.306Z,40.26
2022-09-16T15:17:00.547Z,40.81
2022-09-16T15:19:50.669Z,40.54
2022-09-16T15:22:18.790Z,39.81
2022-09-16T15:24:49.308Z,40.46
2022-09-16T15:27:27.957Z,40.67
2022-09-16T15:29:59.582Z,40.55
2022-09-16T15:32:31.056Z,40.53
2022-09-16T15:35:22.275Z,41.89
2022-09-16T15:37:51.069Z,40.58
2022-09-16T15:40:43.509Z,41.57
2022-09-16T15:43:13.155Z,39.81
2022-09-16T15:45:41.422Z,39.35
2022-09-16T15:48:32.258Z,39.44
2022-09-16T15:51:08.511Z,41.02
2022-09-16T15:53:41.923Z,40.33
2022-09-16T15:56:08.737Z,40.42
2022-09-16T15:58:38.108Z,40.61
2022-09-16T16:01:37.606Z,40.71
2022-09-16T16:04:08.260Z,41.00
2022-09-16T16:06:53.608Z,40.45
2022-09-16T16:09:44.583Z,41.24
2022-09-16T16:12:16.878Z,40.36
2022-09-16T16:14:44.531Z,40.17
2022-09-16T16:17:21.343Z,39.50
2022-09-16T16:19:50.421Z,39.43
2022-09-16T16:22:18.393Z,39.67
2022-09-16T16:24:45.713Z,40.47
2022-09-16T16:27:12.850Z,41.24
2022-09-16T16:29:39.790Z,40.99
2022-09-16T16:32:12.796Z,40.47
2022-09-16T16:34:43.084Z,40.87
2022-09-16T16:37:28.017Z,40.93
2022-09-16T16:40:11.035Z,41.41
2022-09-16T16:43:03.333Z,42.09
2022-09-16T16:45:41.559Z,41.94
2022-09-16T16:48:09.246Z,42.46
2022-09-16T16:50:39.750Z,42.58
2022-09-16T16:53:06.617Z,42.56
2022-09-16T16:55:33.684Z,42.82
2022-09-16T16:58:00.609Z,42.78
2022-09-16T17:00:41.961Z,42.61
2022-09-16T17:03:08.810Z,42.85
2022-09-16T17:05:35.895Z,42.81
2022-09-16T17:08:02.975Z,42.20
2022-09-16T17:10:35.756Z,41.34
2022-09-16T17:13:02.482Z,41.63
2022-09-16T17:15:29.367Z,41.36
2022-09-16T17:17:56.415Z,41.04
2022-09-16T17:20:33.916Z,41.73
2022-09-16T17:23:00.779Z,41.05
2022-09-16T17:25:28.049Z,41.55
2022-09-16T17:27:55.729Z,41.31
2022-09-16T17:30:31.261Z,41.84
2022-09-16T17:32:58.218Z,41.95
2022-09-16T17:35:56.551Z,41.23
2022-09-16T17:38:25.419Z,41.86
2022-09-16T17:40:52.298Z,42.02
2022-09-16T17:43:21.428Z,41.87
2022-09-16T17:45:55.244Z,42.31
2022-09-16T17:48:22.131Z,42.46
2022-09-16T17:50:53.074Z,42.47
2022-09-16T17:53:20.556Z,42.50
2022-09-16T17:55:48.002Z,41.82
2022-09-16T17:58:15.912Z,41.11
2022-09-16T18:00:43.908Z,41.56
2022-09-16T18:03:14.002Z,41.63
2022-09-16T18:05:41.028Z,41.79
2022-09-16T18:08:08.012Z,41.63
2022-09-16T18:10:35.668Z,41.79
2022-09-16T18:13:03.178Z,42.13
2022-09-16T18:15:30.567Z,42.28
2022-09-16T18:17:57.486Z,42.75
2022-09-16T18:20:31.540Z,42.71
2022-09-16T18:22:58.581Z,42.69
2022-09-16T18:25:26.003Z,43.07
2022-09-16T18:27:52.886Z,43.26
2022-09-16T18:30:30.312Z,43.12
2022-09-16T18:32:57.377Z,43.58
2022-09-16T18:35:24.198Z,43.87
2022-09-16T18:37:51.131Z,44.29
2022-09-16T18:40:18.058Z,43.98
2022-09-16T18:42:45.081Z,44.37
2022-09-16T18:45:12.118Z,44.49
2022-09-16T18:47:39.499Z,44.69
2022-09-16T18:50:07.162Z,44.48
2022-09-16T18:52:34.185Z,44.34
2022-09-16T18:55:01.145Z,44.27
2022-09-16T18:57:28.223Z,44.73
2022-09-16T18:59:55.047Z,45.08
2022-09-16T19:02:22.010Z,45.14
2022-09-16T19:04:49.074Z,44.63
2022-09-16T19:07:17.500Z,44.33
2022-09-16T19:09:46.335Z,44.05
2022-09-16T19:12:13.737Z,44.59
2022-09-16T19:14:41.262Z,45.29
2022-09-16T19:17:10.616Z,45.72
2022-09-16T19:19:37.620Z,45.19
2022-09-16T19:22:06.430Z,45.55
2022-09-16T19:24:34.501Z,45.29
2022-09-16T19:27:01.505Z,45.56
2022-09-16T19:29:28.466Z,45.81
2022-09-16T19:31:55.309Z,46.24
2022-09-16T19:34:22.683Z,46.20
2022-09-16T19:36:56.692Z,45.97
2022-09-16T19:39:24.561Z,45.52
2022-09-16T19:41:51.438Z,45.69
2022-09-16T19:44:18.659Z,45.93
2022-09-16T19:46:50.020Z,46.14
2022-09-16T19:49:20.231Z,46.22
2022-09-16T19:51:48.579Z,45.88
2022-09-16T19:54:16.467Z,45.74
2022-09-16T19:56:46.958Z,45.99
2022-09-16T19:59:16.686Z,45.95
2022-09-16T20:01:44.125Z,46.02
2022-09-16T20:04:11.104Z,45.73
2022-09-16T20:06:40.848Z,45.53
2022-09-16T20:09:13.041Z,45.79
2022-09-16T20:11:45.621Z,45.45
2022-09-16T20:14:16.450Z,45.60
2022-09-16T20:16:44.037Z,45.48
2022-09-16T20:19:13.962Z,45.50
2022-09-16T20:21:41.625Z,45.54
2022-09-16T20:24:15.686Z,46.25
2022-09-16T20:26:42.628Z,45.96
2022-09-16T20:29:09.550Z,45.76
2022-09-16T20:31:48.636Z,45.24
2022-09-16T20:34:16.576Z,45.60
2022-09-16T20:36:44.886Z,45.25
2022-09-16T20:39:12.835Z,45.19
2022-09-16T20:41:53.287Z,45.06
2022-09-16T20:44:20.429Z,44.84
2022-09-16T20:46:49.368Z,45.52
2022-09-16T20:49:20.489Z,45.11
2022-09-16T20:51:47.528Z,45.17
2022-09-16T20:54:15.959Z,45.52
2022-09-16T20:56:45.819Z,45.49
2022-09-16T20:59:15.297Z,45.51
2022-09-16T21:01:42.321Z,45.99
2022-09-16T21:04:14.988Z,45.60
2022-09-16T21:06:41.947Z,45.67
2022-09-16T21:09:10.895Z,45.98
2022-09-16T21:11:44.912Z,45.87
2022-09-16T21:14:15.378Z,46.19
2022-09-16T21:16:43.526Z,46.25
2022-09-16T21:19:12.957Z,46.30
2022-09-16T21:21:42.288Z,46.47
2022-09-16T21:24:09.962Z,46.79
2022-09-16T21:26:38.701Z,46.26
2022-09-16T21:29:11.624Z,46.53
2022-09-16T21:31:41.298Z,46.61
2022-09-16T21:34:14.343Z,46.92
2022-09-16T21:36:41.607Z,47.17
2022-09-16T21:39:08.839Z,47.24
2022-09-16T21:41:38.813Z,47.26
2022-09-16T21:44:06.243Z,47.05
2022-09-16T21:46:41.896Z,47.59
2022-09-16T21:49:23.111Z,47.51
2022-09-16T21:51:52.441Z,47.51
2022-09-16T21:54:20.599Z,47.68
2022-09-16T21:56:49.167Z,48.05
2022-09-16T21:59:16.470Z,48.51
2022-09-16T22:01:43.785Z,48.18
2022-09-16T22:04:16.829Z,48.37
2022-09-16T22:06:44.467Z,48.34
2022-09-16T22:09:11.601Z,48.44
2022-09-16T22:11:43.125Z,48.87
2022-09-16T22:14:11.453Z,48.72
2022-09-16T22:16:40.039Z,49.31
2022-09-16T22:19:12.242Z,49.20
2022-09-16T22:21:42.541Z,49.18
2022-09-16T22:24:10.567Z,49.20
2022-09-16T22:26:39.248Z,49.47
2022-09-16T22:29:09.976Z,49.41
2022-09-16T22:31:42.713Z,49.66
2022-09-16T22:34:11.487Z,49.37
2022-09-16T22:36:39.797Z,49.60
2022-09-16T22:39:16.083Z,50.00
2022-09-16T22:41:44.388Z,50.19
2022-09-16T22:44:12.387Z,50.97
2022-09-16T22:46:44.160Z,51.01
2022-09-16T22:49:14.431Z,50.47
2022-09-16T22:51:42.038Z,49.65
2022-09-16T22:54:11.462Z,49.73
2022-09-16T22:56:38.894Z,49.58
2022-09-16T22:59:08.526Z,50.27
2022-09-16T23:01:40.602Z,50.52
2022-09-16T23:04:09.546Z,50.96
2022-09-16T23:06:38.615Z,50.92
2022-09-16T23:09:11.338Z,50.48
2022-09-16T23:11:40.494Z,50.37
2022-09-16T23:14:11.273Z,50.71
2022-09-16T23:16:38.869Z,51.01
2022-09-16T23:19:10.018Z,51.16
2022-09-16T23:21:38.326Z,50.92
2022-09-16T23:24:09.450Z,51.18
2022-09-16T23:26:38.506Z,51.49
2022-09-16T23:29:08.332Z,51.41
2022-09-16T23:31:40.691Z,51.13
2022-09-16T23:34:12.654Z,51.04
2022-09-16T23:36:40.380Z,50.83
2022-09-16T23:39:08.064Z,52.03
2022-09-16T23:41:35.972Z,52.41
2022-09-16T23:44:04.239Z,52.83
2022-09-16T23:46:32.212Z,52.79
2022-09-16T23:48:59.781Z,52.76
2022-09-16T23:51:28.926Z,52.86
2022-09-16T23:53:57.648Z,53.18
2022-09-16T23:56:24.599Z,53.24
2022-09-16T23:58:52.294Z,53.95
